sensor_id;sensor_type;location;lat;lon;timestamp;pressure;altitude;pressure_sealevel;temperature;humidity
56681;BME280;42558;52.388;13.390;2023-05-03T00:01:08;102205.20;;;7.19;71.13
56681;BME280;42558;52.388;13.390;2023-05-03T00:03:38;102208.07;;;7.17;70.74
56681;BME280;42558;52.388;13.390;2023-05-03T00:06:15;102208.08;;;7.14;71.53
56681;BME280;42558;52.388;13.390;2023-05-03T00:08:44;102208.77;;;7.10;71.63
56681;BME280;42558;52.388;13.390;2023-05-03T00:11:14;102208.33;;;7.08;71.88
56681;BME280;42558;52.388;13.390;2023-05-03T00:13:44;102211.11;;;7.05;72.83
56681;BME280;42558;52.388;13.390;2023-05-03T00:16:14;102209.64;;;7.00;73.01
56681;BME280;42558;52.388;13.390;2023-05-03T00:18:44;102212.96;;;6.97;72.92
56681;BME280;42558;52.388;13.390;2023-05-03T00:21:16;102208.01;;;6.92;73.21
56681;BME280;42558;52.388;13.390;2023-05-03T00:23:46;102208.61;;;6.90;73.82
56681;BME280;42558;52.388;13.390;2023-05-03T00:26:16;102209.80;;;6.86;75.39
56681;BME280;42558;52.388;13.390;2023-05-03T00:28:46;102211.84;;;6.78;75.79
56681;BME280;42558;52.388;13.390;2023-05-03T00:31:16;102217.79;;;6.68;76.01
56681;BME280;42558;52.388;13.390;2023-05-03T00:33:45;102213.40;;;6.61;75.34
56681;BME280;42558;52.388;13.390;2023-05-03T00:36:15;102218.77;;;6.57;74.39
56681;BME280;42558;52.388;13.390;2023-05-03T00:38:45;102220.16;;;6.54;73.61
56681;BME280;42558;52.388;13.390;2023-05-03T00:41:15;102216.21;;;6.49;73.36
56681;BME280;42558;52.388;13.390;2023-05-03T00:43:45;102220.75;;;6.52;72.31
56681;BME280;42558;52.388;13.390;2023-05-03T00:46:15;102217.48;;;6.53;72.00
56681;BME280;42558;52.388;13.390;2023-05-03T00:48:49;102218.58;;;6.50;71.67
56681;BME280;42558;52.388;13.390;2023-05-03T00:51:19;102219.71;;;6.45;72.29
56681;BME280;42558;52.388;13.390;2023-05-03T00:53:50;102221.83;;;6.36;72.52
56681;BME280;42558;52.388;13.390;2023-05-03T00:56:20;102220.20;;;6.32;72.65
56681;BME280;42558;52.388;13.390;2023-05-03T00:58:52;102223.21;;;6.26;72.73
56681;BME280;42558;52.388;13.390;2023-05-03T01:01:22;102219.05;;;6.17;72.92
56681;BME280;42558;52.388;13.390;2023-05-03T01:03:52;102217.20;;;6.12;73.01
56681;BME280;42558;52.388;13.390;2023-05-03T01:06:34;102221.39;;;6.09;73.16
56681;BME280;42558;52.388;13.390;2023-05-03T01:12:14;102215.86;;;5.86;75.02
56681;BME280;42558;52.388;13.390;2023-05-03T01:17:29;102217.38;;;5.72;75.49
56681;BME280;42558;52.388;13.390;2023-05-03T01:20:07;102216.02;;;5.67;76.26
56681;BME280;42558;52.388;13.390;2023-05-03T01:22:59;102221.60;;;5.60;77.46
56681;BME280;42558;52.388;13.390;2023-05-03T01:25:30;102218.85;;;5.49;77.98
56681;BME280;42558;52.388;13.390;2023-05-03T01:28:01;102215.68;;;5.40;78.73
56681;BME280;42558;52.388;13.390;2023-05-03T01:30:32;102218.55;;;5.32;78.97
56681;BME280;42558;52.388;13.390;2023-05-03T01:35:59;102221.34;;;5.14;80.94
56681;BME280;42558;52.388;13.390;2023-05-03T01:38:35;102228.51;;;5.03;81.95
56681;BME280;42558;52.388;13.390;2023-05-03T01:41:11;102226.70;;;4.93;82.56
56681;BME280;42558;52.388;13.390;2023-05-03T01:43:43;102226.60;;;4.85;83.02
56681;BME280;42558;52.388;13.390;2023-05-03T01:46:14;102227.20;;;4.78;83.16
56681;BME280;42558;52.388;13.390;2023-05-03T01:48:46;102226.00;;;4.70;83.65
56681;BME280;42558;52.388;13.390;2023-05-03T01:51:16;102224.41;;;4.63;84.00
56681;BME280;42558;52.388;13.390;2023-05-03T01:53:46;102228.41;;;4.55;84.35
56681;BME280;42558;52.388;13.390;2023-05-03T01:56:16;102228.21;;;4.49;84.73
56681;BME280;42558;52.388;13.390;2023-05-03T01:58:46;102230.09;;;4.43;85.04
56681;BME280;42558;52.388;13.390;2023-05-03T02:01:16;102228.23;;;4.33;85.71
56681;BME280;42558;52.388;13.390;2023-05-03T02:03:46;102228.27;;;4.25;86.31
56681;BME280;42558;52.388;13.390;2023-05-03T02:06:15;102232.64;;;4.20;86.68
56681;BME280;42558;52.388;13.390;2023-05-03T02:08:45;102233.73;;;4.15;86.69
56681;BME280;42558;52.388;13.390;2023-05-03T02:11:14;102234.29;;;4.10;86.98
56681;BME280;42558;52.388;13.390;2023-05-03T02:13:42;102233.76;;;4.04;86.94
56681;BME280;42558;52.388;13.390;2023-05-03T02:16:11;102233.94;;;3.96;87.09
56681;BME280;42558;52.388;13.390;2023-05-03T02:18:39;102234.05;;;3.90;87.64
56681;BME280;42558;52.388;13.390;2023-05-03T02:21:08;102236.06;;;3.83;87.80
56681;BME280;42558;52.388;13.390;2023-05-03T02:23:36;102235.98;;;3.76;88.14
56681;BME280;42558;52.388;13.390;2023-05-03T02:26:05;102238.77;;;3.72;88.54
56681;BME280;42558;52.388;13.390;2023-05-03T02:28:33;102242.53;;;3.65;88.76
56681;BME280;42558;52.388;13.390;2023-05-03T02:31:01;102245.52;;;3.57;89.16
56681;BME280;42558;52.388;13.390;2023-05-03T02:33:33;102246.18;;;3.52;89.74
56681;BME280;42558;52.388;13.390;2023-05-03T02:36:01;102243.84;;;3.45;90.23
56681;BME280;42558;52.388;13.390;2023-05-03T02:38:30;102245.23;;;3.40;90.61
56681;BME280;42558;52.388;13.390;2023-05-03T02:40:58;102246.95;;;3.37;90.99
56681;BME280;42558;52.388;13.390;2023-05-03T02:43:27;102256.19;;;3.33;91.45
56681;BME280;42558;52.388;13.390;2023-05-03T02:45:55;102255.21;;;3.28;91.54
56681;BME280;42558;52.388;13.390;2023-05-03T02:48:24;102254.20;;;3.23;91.97
56681;BME280;42558;52.388;13.390;2023-05-03T02:50:52;102259.77;;;3.18;92.32
56681;BME280;42558;52.388;13.390;2023-05-03T02:53:21;102262.39;;;3.13;92.64
56681;BME280;42558;52.388;13.390;2023-05-03T02:55:49;102266.49;;;3.08;92.79
56681;BME280;42558;52.388;13.390;2023-05-03T02:58:17;102263.00;;;3.02;93.08
56681;BME280;42558;52.388;13.390;2023-05-03T03:00:46;102264.13;;;2.98;93.31
56681;BME280;42558;52.388;13.390;2023-05-03T03:03:14;102270.78;;;2.96;93.54
56681;BME280;42558;52.388;13.390;2023-05-03T03:05:45;102272.00;;;2.91;93.43
56681;BME280;42558;52.388;13.390;2023-05-03T03:08:16;102273.29;;;2.87;93.77
56681;BME280;42558;52.388;13.390;2023-05-03T03:10:46;102276.61;;;2.85;93.65
56681;BME280;42558;52.388;13.390;2023-05-03T03:13:17;102277.14;;;2.80;94.03
56681;BME280;42558;52.388;13.390;2023-05-03T03:15:46;102274.10;;;2.79;94.34
56681;BME280;42558;52.388;13.390;2023-05-03T03:18:17;102278.37;;;2.78;94.67
56681;BME280;42558;52.388;13.390;2023-05-03T03:20:48;102280.30;;;2.78;95.02
56681;BME280;42558;52.388;13.390;2023-05-03T03:23:18;102281.77;;;2.74;95.03
56681;BME280;42558;52.388;13.390;2023-05-03T03:25:48;102280.96;;;2.70;94.98
56681;BME280;42558;52.388;13.390;2023-05-03T03:28:18;102284.20;;;2.67;95.25
56681;BME280;42558;52.388;13.390;2023-05-03T03:30:48;102286.05;;;2.66;95.55
56681;BME280;42558;52.388;13.390;2023-05-03T03:33:18;102288.61;;;2.63;95.61
56681;BME280;42558;52.388;13.390;2023-05-03T03:35:47;102289.70;;;2.58;95.41
56681;BME280;42558;52.388;13.390;2023-05-03T03:38:17;102293.45;;;2.55;95.65
56681;BME280;42558;52.388;13.390;2023-05-03T03:40:47;102296.95;;;2.51;95.71
56681;BME280;42558;52.388;13.390;2023-05-03T03:43:17;102296.98;;;2.46;95.74
56681;BME280;42558;52.388;13.390;2023-05-03T03:45:47;102299.88;;;2.43;95.72
56681;BME280;42558;52.388;13.390;2023-05-03T03:48:17;102300.73;;;2.40;96.07
56681;BME280;42558;52.388;13.390;2023-05-03T03:50:47;102305.96;;;2.38;96.26
56681;BME280;42558;52.388;13.390;2023-05-03T03:53:18;102301.79;;;2.38;96.28
56681;BME280;42558;52.388;13.390;2023-05-03T03:55:48;102299.05;;;2.39;96.38
56681;BME280;42558;52.388;13.390;2023-05-03T03:58:17;102302.33;;;2.38;96.56
56681;BME280;42558;52.388;13.390;2023-05-03T04:00:48;102312.70;;;2.38;96.85
56681;BME280;42558;52.388;13.390;2023-05-03T04:03:18;102310.48;;;2.38;96.92
56681;BME280;42558;52.388;13.390;2023-05-03T04:05:49;102318.52;;;2.41;97.14
56681;BME280;42558;52.388;13.390;2023-05-03T04:08:19;102318.97;;;2.43;97.23
56681;BME280;42558;52.388;13.390;2023-05-03T04:10:49;102320.34;;;2.42;97.32
56681;BME280;42558;52.388;13.390;2023-05-03T04:13:19;102324.16;;;2.42;97.27
56681;BME280;42558;52.388;13.390;2023-05-03T04:15:53;102328.15;;;2.42;97.20
56681;BME280;42558;52.388;13.390;2023-05-03T04:18:24;102330.91;;;2.45;97.45
56681;BME280;42558;52.388;13.390;2023-05-03T04:20:54;102333.73;;;2.51;97.64
56681;BME280;42558;52.388;13.390;2023-05-03T04:23:24;102333.41;;;2.56;97.63
56681;BME280;42558;52.388;13.390;2023-05-03T04:25:54;102337.76;;;2.61;97.86
56681;BME280;42558;52.388;13.390;2023-05-03T04:28:25;102340.30;;;2.70;98.07
56681;BME280;42558;52.388;13.390;2023-05-03T04:30:55;102341.14;;;2.77;97.74
56681;BME280;42558;52.388;13.390;2023-05-03T04:33:27;102341.13;;;2.81;97.64
56681;BME280;42558;52.388;13.390;2023-05-03T04:35:58;102349.69;;;2.89;97.87
56681;BME280;42558;52.388;13.390;2023-05-03T04:38:28;102347.50;;;2.98;97.78
56681;BME280;42558;52.388;13.390;2023-05-03T04:40:58;102353.35;;;3.10;97.57
56681;BME280;42558;52.388;13.390;2023-05-03T04:43:28;102353.02;;;3.27;96.84
56681;BME280;42558;52.388;13.390;2023-05-03T04:45:57;102357.30;;;3.39;96.08
56681;BME280;42558;52.388;13.390;2023-05-03T04:48:28;102352.36;;;3.51;95.23
56681;BME280;42558;52.388;13.390;2023-05-03T04:50:58;102349.80;;;3.62;94.70
56681;BME280;42558;52.388;13.390;2023-05-03T04:53:28;102352.41;;;3.75;94.38
56681;BME280;42558;52.388;13.390;2023-05-03T04:55:58;102352.63;;;3.89;93.55
56681;BME280;42558;52.388;13.390;2023-05-03T04:58:26;102352.96;;;4.07;91.84
56681;BME280;42558;52.388;13.390;2023-05-03T05:00:55;102354.09;;;4.19;90.26
56681;BME280;42558;52.388;13.390;2023-05-03T05:03:23;102356.15;;;4.24;90.07
56681;BME280;42558;52.388;13.390;2023-05-03T05:05:52;102356.86;;;4.40;89.60
56681;BME280;42558;52.388;13.390;2023-05-03T05:08:20;102361.46;;;4.55;88.31
56681;BME280;42558;52.388;13.390;2023-05-03T05:10:49;102361.05;;;4.62;87.18
56681;BME280;42558;52.388;13.390;2023-05-03T05:13:17;102356.55;;;4.71;85.79
56681;BME280;42558;52.388;13.390;2023-05-03T05:15:45;102358.48;;;4.82;85.79
56681;BME280;42558;52.388;13.390;2023-05-03T05:18:14;102360.38;;;4.96;84.61
56681;BME280;42558;52.388;13.390;2023-05-03T05:20:42;102358.23;;;5.09;83.73
56681;BME280;42558;52.388;13.390;2023-05-03T05:23:11;102358.90;;;5.20;81.54
56681;BME280;42558;52.388;13.390;2023-05-03T05:25:39;102360.14;;;5.41;81.32
56681;BME280;42558;52.388;13.390;2023-05-03T05:28:09;102358.05;;;5.55;80.27
56681;BME280;42558;52.388;13.390;2023-05-03T05:30:39;102357.07;;;5.65;79.09
56681;BME280;42558;52.388;13.390;2023-05-03T05:33:07;102355.63;;;5.88;78.06
56681;BME280;42558;52.388;13.390;2023-05-03T05:35:36;102362.80;;;5.96;77.17
56681;BME280;42558;52.388;13.390;2023-05-03T05:38:06;102362.95;;;6.05;76.82
56681;BME280;42558;52.388;13.390;2023-05-03T05:40:35;102367.91;;;6.28;77.02
56681;BME280;42558;52.388;13.390;2023-05-03T05:43:05;102369.45;;;6.43;75.35
56681;BME280;42558;52.388;13.390;2023-05-03T05:45:35;102371.30;;;6.38;75.02
56681;BME280;42558;52.388;13.390;2023-05-03T05:48:05;102370.14;;;6.49;74.52
56681;BME280;42558;52.388;13.390;2023-05-03T05:50:35;102375.44;;;6.62;73.67
56681;BME280;42558;52.388;13.390;2023-05-03T05:53:05;102376.49;;;6.47;73.05
56681;BME280;42558;52.388;13.390;2023-05-03T05:55:35;102378.78;;;6.60;73.65
56681;BME280;42558;52.388;13.390;2023-05-03T05:58:04;102376.21;;;6.83;72.67
56681;BME280;42558;52.388;13.390;2023-05-03T06:00:34;102376.82;;;6.97;71.83
56681;BME280;42558;52.388;13.390;2023-05-03T06:03:04;102379.80;;;7.20;71.85
56681;BME280;42558;52.388;13.390;2023-05-03T06:05:34;102377.23;;;7.48;70.84
56681;BME280;42558;52.388;13.390;2023-05-03T06:08:04;102373.13;;;7.63;69.51
56681;BME280;42558;52.388;13.390;2023-05-03T06:10:34;102370.60;;;7.92;69.07
56681;BME280;42558;52.388;13.390;2023-05-03T06:13:04;102372.27;;;8.01;67.69
56681;BME280;42558;52.388;13.390;2023-05-03T06:15:34;102375.88;;;7.72;67.36
56681;BME280;42558;52.388;13.390;2023-05-03T06:18:04;102378.27;;;8.20;67.46
56681;BME280;42558;52.388;13.390;2023-05-03T06:20:34;102379.09;;;8.22;66.33
56681;BME280;42558;52.388;13.390;2023-05-03T06:23:04;102379.33;;;8.59;65.46
56681;BME280;42558;52.388;13.390;2023-05-03T06:25:34;102380.55;;;8.92;64.22
56681;BME280;42558;52.388;13.390;2023-05-03T06:28:04;102381.02;;;8.62;64.85
56681;BME280;42558;52.388;13.390;2023-05-03T06:30:34;102384.66;;;9.05;63.97
56681;BME280;42558;52.388;13.390;2023-05-03T06:33:04;102384.31;;;9.06;62.79
56681;BME280;42558;52.388;13.390;2023-05-03T06:35:35;102384.02;;;9.18;62.88
56681;BME280;42558;52.388;13.390;2023-05-03T06:38:06;102384.38;;;9.22;61.67
56681;BME280;42558;52.388;13.390;2023-05-03T06:40:36;102381.77;;;9.43;61.57
56681;BME280;42558;52.388;13.390;2023-05-03T06:43:07;102380.74;;;9.55;59.60
56681;BME280;42558;52.388;13.390;2023-05-03T06:45:41;102379.27;;;9.61;60.14
56681;BME280;42558;52.388;13.390;2023-05-03T06:48:11;102377.65;;;10.18;59.65
56681;BME280;42558;52.388;13.390;2023-05-03T06:50:39;102378.06;;;10.49;57.79
56681;BME280;42558;52.388;13.390;2023-05-03T06:53:08;102375.04;;;10.35;57.19
56681;BME280;42558;52.388;13.390;2023-05-03T06:55:36;102378.22;;;9.99;58.60
56681;BME280;42558;52.388;13.390;2023-05-03T06:58:04;102380.20;;;10.38;58.47
56681;BME280;42558;52.388;13.390;2023-05-03T07:00:38;102379.00;;;10.51;55.67
56681;BME280;42558;52.388;13.390;2023-05-03T07:03:08;102377.83;;;10.39;55.47
56681;BME280;42558;52.388;13.390;2023-05-03T07:05:39;102378.82;;;10.42;55.10
56681;BME280;42558;52.388;13.390;2023-05-03T07:08:09;102377.33;;;10.57;55.20
56681;BME280;42558;52.388;13.390;2023-05-03T07:10:38;102375.91;;;10.80;55.03
56681;BME280;42558;52.388;13.390;2023-05-03T07:13:10;102374.84;;;11.26;53.55
56681;BME280;42558;52.388;13.390;2023-05-03T07:15:40;102372.35;;;11.55;53.26
56681;BME280;42558;52.388;13.390;2023-05-03T07:18:10;102369.51;;;11.74;52.26
56681;BME280;42558;52.388;13.390;2023-05-03T07:20:40;102375.27;;;11.28;51.43
56681;BME280;42558;52.388;13.390;2023-05-03T07:23:10;102382.91;;;10.97;53.99
56681;BME280;42558;52.388;13.390;2023-05-03T07:25:41;102377.23;;;11.49;52.32
56681;BME280;42558;52.388;13.390;2023-05-03T07:28:11;102380.71;;;11.04;52.88
56681;BME280;42558;52.388;13.390;2023-05-03T07:30:42;102375.16;;;11.40;52.66
56681;BME280;42558;52.388;13.390;2023-05-03T07:33:12;102371.83;;;11.84;50.67
56681;BME280;42558;52.388;13.390;2023-05-03T07:35:45;102373.17;;;11.63;52.55
56681;BME280;42558;52.388;13.390;2023-05-03T07:38:16;102371.55;;;12.18;50.81
56681;BME280;42558;52.388;13.390;2023-05-03T07:40:46;102366.02;;;12.15;49.28
56681;BME280;42558;52.388;13.390;2023-05-03T07:43:15;102364.91;;;12.36;49.68
56681;BME280;42558;52.388;13.390;2023-05-03T07:45:47;102364.74;;;12.53;49.08
56681;BME280;42558;52.388;13.390;2023-05-03T07:48:16;102364.55;;;12.20;49.63
56681;BME280;42558;52.388;13.390;2023-05-03T07:50:46;102361.16;;;12.29;49.91
56681;BME280;42558;52.388;13.390;2023-05-03T07:53:16;102356.30;;;12.32;49.22
56681;BME280;42558;52.388;13.390;2023-05-03T07:55:46;102354.27;;;12.29;49.30
56681;BME280;42558;52.388;13.390;2023-05-03T07:58:16;102359.35;;;11.71;49.95
56681;BME280;42558;52.388;13.390;2023-05-03T08:00:49;102356.93;;;12.02;49.65
56681;BME280;42558;52.388;13.390;2023-05-03T08:03:20;102355.77;;;11.49;49.50
56681;BME280;42558;52.388;13.390;2023-05-03T08:05:50;102354.93;;;11.96;48.57
56681;BME280;42558;52.388;13.390;2023-05-03T08:08:20;102356.94;;;11.72;49.18
56681;BME280;42558;52.388;13.390;2023-05-03T08:10:51;102357.09;;;12.13;49.88
56681;BME280;42558;52.388;13.390;2023-05-03T08:13:21;102359.46;;;12.65;48.60
56681;BME280;42558;52.388;13.390;2023-05-03T08:15:52;102355.90;;;12.58;47.83
56681;BME280;42558;52.388;13.390;2023-05-03T08:18:21;102356.42;;;13.05;47.85
56681;BME280;42558;52.388;13.390;2023-05-03T08:20:52;102346.39;;;13.62;48.77
56681;BME280;42558;52.388;13.390;2023-05-03T08:23:22;102346.14;;;14.00;44.76
56681;BME280;42558;52.388;13.390;2023-05-03T08:25:52;102352.23;;;12.70;47.24
56681;BME280;42558;52.388;13.390;2023-05-03T08:28:23;102354.55;;;12.96;47.35
56681;BME280;42558;52.388;13.390;2023-05-03T08:30:53;102349.05;;;13.06;46.07
56681;BME280;42558;52.388;13.390;2023-05-03T08:33:23;102343.56;;;13.49;45.13
56681;BME280;42558;52.388;13.390;2023-05-03T08:35:52;102348.38;;;12.77;47.47
56681;BME280;42558;52.388;13.390;2023-05-03T08:38:23;102338.95;;;13.35;46.00
56681;BME280;42558;52.388;13.390;2023-05-03T08:40:57;102337.09;;;13.45;45.25
56681;BME280;42558;52.388;13.390;2023-05-03T08:43:28;102348.52;;;12.82;46.60
56681;BME280;42558;52.388;13.390;2023-05-03T08:45:59;102349.46;;;12.78;46.33
56681;BME280;42558;52.388;13.390;2023-05-03T08:48:27;102359.69;;;12.49;46.78
56681;BME280;42558;52.388;13.390;2023-05-03T08:51:04;102356.44;;;13.81;45.73
56681;BME280;42558;52.388;13.390;2023-05-03T08:53:34;102355.89;;;14.30;44.97
56681;BME280;42558;52.388;13.390;2023-05-03T08:56:59;102355.68;;;13.79;44.48
56681;BME280;42558;52.388;13.390;2023-05-03T08:59:04;102357.27;;;13.33;46.68
56681;BME280;42558;52.388;13.390;2023-05-03T09:01:38;102353.89;;;13.78;44.91
56681;BME280;42558;52.388;13.390;2023-05-03T09:04:10;102353.77;;;13.87;45.15
56681;BME280;42558;52.388;13.390;2023-05-03T09:06:39;102349.67;;;14.00;44.02
56681;BME280;42558;52.388;13.390;2023-05-03T09:09:07;102353.89;;;14.20;44.30
56681;BME280;42558;52.388;13.390;2023-05-03T09:11:37;102354.16;;;14.84;43.00
56681;BME280;42558;52.388;13.390;2023-05-03T09:14:17;102357.22;;;14.34;44.03
56681;BME280;42558;52.388;13.390;2023-05-03T09:16:47;102359.05;;;13.46;43.96
56681;BME280;42558;52.388;13.390;2023-05-03T09:19:17;102357.10;;;13.66;44.55
56681;BME280;42558;52.388;13.390;2023-05-03T09:21:47;102357.55;;;13.56;44.09
56681;BME280;42558;52.388;13.390;2023-05-03T09:24:19;102362.38;;;13.46;44.81
56681;BME280;42558;52.388;13.390;2023-05-03T09:34:35;102360.95;;;13.14;44.42
56681;BME280;42558;52.388;13.390;2023-05-03T09:37:05;102361.77;;;12.88;45.66
56681;BME280;42558;52.388;13.390;2023-05-03T09:39:35;102358.46;;;12.96;45.91
56681;BME280;42558;52.388;13.390;2023-05-03T09:42:26;102361.70;;;13.93;44.08
56681;BME280;42558;52.388;13.390;2023-05-03T09:44:54;102356.59;;;13.94;42.23
56681;BME280;42558;52.388;13.390;2023-05-03T09:47:24;102355.90;;;13.48;43.93
56681;BME280;42558;52.388;13.390;2023-05-03T09:49:54;102354.27;;;14.21;42.64
56681;BME280;42558;52.388;13.390;2023-05-03T09:52:29;102348.85;;;13.50;41.62
56681;BME280;42558;52.388;13.390;2023-05-03T09:54:59;102349.32;;;12.74;44.58
56681;BME280;42558;52.388;13.390;2023-05-03T09:57:29;102344.63;;;13.49;45.26
56681;BME280;42558;52.388;13.390;2023-05-03T10:00:02;102343.67;;;13.53;45.21
56681;BME280;42558;52.388;13.390;2023-05-03T10:02:33;102347.34;;;13.02;46.47
56681;BME280;42558;52.388;13.390;2023-05-03T10:05:04;102343.75;;;13.12;47.41
56681;BME280;42558;52.388;13.390;2023-05-03T10:07:38;102342.26;;;13.33;46.04
56681;BME280;42558;52.388;13.390;2023-05-03T10:10:10;102343.24;;;13.91;45.95
56681;BME280;42558;52.388;13.390;2023-05-03T10:12:39;102340.95;;;14.12;45.88
56681;BME280;42558;52.388;13.390;2023-05-03T10:15:12;102343.74;;;14.25;44.31
56681;BME280;42558;52.388;13.390;2023-05-03T10:17:46;102342.61;;;14.36;44.00
56681;BME280;42558;52.388;13.390;2023-05-03T10:20:27;102340.05;;;15.21;43.56
56681;BME280;42558;52.388;13.390;2023-05-03T10:23:07;102338.58;;;14.35;42.88
56681;BME280;42558;52.388;13.390;2023-05-03T10:26:12;102340.73;;;14.10;45.99
56681;BME280;42558;52.388;13.390;2023-05-03T10:28:42;102339.11;;;14.46;43.85
56681;BME280;42558;52.388;13.390;2023-05-03T10:31:51;102337.77;;;13.98;43.97
56681;BME280;42558;52.388;13.390;2023-05-03T10:34:21;102338.27;;;13.82;43.30
56681;BME280;42558;52.388;13.390;2023-05-03T10:44:38;102331.60;;;13.57;44.70
56681;BME280;42558;52.388;13.390;2023-05-03T10:47:17;102333.65;;;14.63;42.59
56681;BME280;42558;52.388;13.390;2023-05-03T10:49:47;102324.73;;;13.93;43.84
56681;BME280;42558;52.388;13.390;2023-05-03T10:52:52;102328.77;;;14.07;43.14
56681;BME280;42558;52.388;13.390;2023-05-03T10:55:23;102320.16;;;14.76;40.43
56681;BME280;42558;52.388;13.390;2023-05-03T10:57:58;102318.95;;;14.55;41.02
56681;BME280;42558;52.388;13.390;2023-05-03T11:00:38;102320.63;;;14.35;41.46
56681;BME280;42558;52.388;13.390;2023-05-03T11:03:29;102313.54;;;15.07;41.32
56681;BME280;42558;52.388;13.390;2023-05-03T11:06:02;102312.91;;;14.86;40.29
56681;BME280;42558;52.388;13.390;2023-05-03T11:08:32;102309.22;;;14.54;42.37
56681;BME280;42558;52.388;13.390;2023-05-03T11:11:06;102311.82;;;14.59;40.29
56681;BME280;42558;52.388;13.390;2023-05-03T11:13:38;102314.19;;;14.39;42.26
56681;BME280;42558;52.388;13.390;2023-05-03T11:16:08;102313.70;;;13.75;41.66
56681;BME280;42558;52.388;13.390;2023-05-03T11:18:38;102315.52;;;14.21;43.29
56681;BME280;42558;52.388;13.390;2023-05-03T11:21:10;102316.30;;;14.63;41.09
56681;BME280;42558;52.388;13.390;2023-05-03T11:23:41;102314.66;;;14.07;41.36
56681;BME280;42558;52.388;13.390;2023-05-03T11:26:12;102308.30;;;13.45;42.20
56681;BME280;42558;52.388;13.390;2023-05-03T11:28:43;102307.59;;;13.72;42.34
56681;BME280;42558;52.388;13.390;2023-05-03T11:31:13;102306.39;;;14.31;42.25
56681;BME280;42558;52.388;13.390;2023-05-03T11:33:43;102299.37;;;13.62;42.69
56681;BME280;42558;52.388;13.390;2023-05-03T11:36:16;102299.84;;;14.38;42.97
56681;BME280;42558;52.388;13.390;2023-05-03T11:38:46;102298.33;;;14.34;43.09
56681;BME280;42558;52.388;13.390;2023-05-03T11:41:17;102299.00;;;14.56;43.08
56681;BME280;42558;52.388;13.390;2023-05-03T11:43:48;102296.92;;;14.20;43.89
56681;BME280;42558;52.388;13.390;2023-05-03T11:46:38;102291.59;;;14.42;42.59
56681;BME280;42558;52.388;13.390;2023-05-03T11:49:09;102290.73;;;14.50;43.12
56681;BME280;42558;52.388;13.390;2023-05-03T11:51:38;102284.79;;;14.78;44.06
56681;BME280;42558;52.388;13.390;2023-05-03T11:54:10;102283.06;;;14.73;42.28
56681;BME280;42558;52.388;13.390;2023-05-03T11:56:57;102287.20;;;14.28;42.55
56681;BME280;42558;52.388;13.390;2023-05-03T11:59:39;102282.33;;;14.46;43.65
56681;BME280;42558;52.388;13.390;2023-05-03T12:02:12;102277.20;;;14.62;42.34
56681;BME280;42558;52.388;13.390;2023-05-03T12:04:44;102277.45;;;14.06;42.69
56681;BME280;42558;52.388;13.390;2023-05-03T12:07:15;102285.40;;;13.55;43.99
56681;BME280;42558;52.388;13.390;2023-05-03T12:09:49;102284.39;;;14.06;42.74
56681;BME280;42558;52.388;13.390;2023-05-03T12:12:39;102283.58;;;14.32;43.06
56681;BME280;42558;52.388;13.390;2023-05-03T12:15:30;102275.30;;;14.73;42.54
56681;BME280;42558;52.388;13.390;2023-05-03T12:18:05;102271.00;;;14.79;42.48
56681;BME280;42558;52.388;13.390;2023-05-03T12:20:38;102269.16;;;14.93;42.42
56681;BME280;42558;52.388;13.390;2023-05-03T12:23:11;102267.70;;;15.18;42.29
56681;BME280;42558;52.388;13.390;2023-05-03T12:25:44;102270.05;;;14.67;41.96
56681;BME280;42558;52.388;13.390;2023-05-03T12:28:18;102268.45;;;14.75;44.24
56681;BME280;42558;52.388;13.390;2023-05-03T12:30:49;102264.16;;;15.00;42.38
56681;BME280;42558;52.388;13.390;2023-05-03T12:33:20;102266.73;;;14.87;42.60
56681;BME280;42558;52.388;13.390;2023-05-03T12:35:49;102260.15;;;14.94;42.15
56681;BME280;42558;52.388;13.390;2023-05-03T12:38:22;102261.14;;;14.65;43.24
56681;BME280;42558;52.388;13.390;2023-05-03T12:40:53;102259.23;;;14.67;41.89
56681;BME280;42558;52.388;13.390;2023-05-03T12:43:24;102255.97;;;14.88;42.49
56681;BME280;42558;52.388;13.390;2023-05-03T12:45:54;102258.04;;;14.78;43.17
56681;BME280;42558;52.388;13.390;2023-05-03T12:48:32;102256.14;;;14.55;42.27
56681;BME280;42558;52.388;13.390;2023-05-03T12:51:03;102261.42;;;14.15;44.14
56681;BME280;42558;52.388;13.390;2023-05-03T12:53:48;102251.52;;;14.97;42.79
56681;BME280;42558;52.388;13.390;2023-05-03T12:56:24;102248.42;;;15.01;40.74
56681;BME280;42558;52.388;13.390;2023-05-03T12:58:54;102245.08;;;15.40;41.58
56681;BME280;42558;52.388;13.390;2023-05-03T13:01:27;102244.55;;;15.71;41.03
56681;BME280;42558;52.388;13.390;2023-05-03T13:03:58;102240.95;;;15.58;39.83
56681;BME280;42558;52.388;13.390;2023-05-03T13:06:48;102238.10;;;15.18;41.09
56681;BME280;42558;52.388;13.390;2023-05-03T13:09:28;102241.48;;;15.19;41.78
56681;BME280;42558;52.388;13.390;2023-05-03T13:12:18;102242.77;;;15.12;42.24
56681;BME280;42558;52.388;13.390;2023-05-03T13:14:52;102241.75;;;15.04;40.17
56681;BME280;42558;52.388;13.390;2023-05-03T13:17:23;102235.74;;;15.24;40.75
56681;BME280;42558;52.388;13.390;2023-05-03T13:19:53;102238.22;;;15.64;39.31
56681;BME280;42558;52.388;13.390;2023-05-03T13:22:23;102234.09;;;15.71;38.89
56681;BME280;42558;52.388;13.390;2023-05-03T13:24:53;102231.91;;;15.68;39.42
56681;BME280;42558;52.388;13.390;2023-05-03T13:27:23;102219.60;;;16.09;41.02
56681;BME280;42558;52.388;13.390;2023-05-03T13:29:52;102212.45;;;15.93;39.50
56681;BME280;42558;52.388;13.390;2023-05-03T13:32:22;102206.46;;;15.32;40.99